sensor_id;sensor_type;location;lat;lon;timestamp;P1;durP1;ratioP1;P2;durP2;ratioP2
70075;SDS011;63241;51.056;3.698;2023-04-16T00:00:30;11.95;;;4.20;;
70075;SDS011;63241;51.056;3.698;2023-04-16T00:02:58;13.08;;;4.33;;
70075;SDS011;63241;51.056;3.698;2023-04-16T00:05:26;11.78;;;4.10;;
70075;SDS011;63241;51.056;3.698;2023-04-16T00:07:53;15.20;;;4.37;;
70075;SDS011;63241;51.056;3.698;2023-04-16T00:10:21;12.47;;;3.77;;
70075;SDS011;63241;51.056;3.698;2023-04-16T00:12:48;16.10;;;3.92;;
70075;SDS011;63241;51.056;3.698;2023-04-16T00:15:16;15.03;;;4.10;;
70075;SDS011;63241;51.056;3.698;2023-04-16T00:17:44;11.97;;;3.55;;
70075;SDS011;63241;51.056;3.698;2023-04-16T00:20:11;15.63;;;3.67;;
70075;SDS011;63241;51.056;3.698;2023-04-16T00:22:39;21.40;;;3.83;;
70075;SDS011;63241;51.056;3.698;2023-04-16T00:25:07;12.60;;;3.40;;
70075;SDS011;63241;51.056;3.698;2023-04-16T00:27:35;14.47;;;3.42;;
70075;SDS011;63241;51.056;3.698;2023-04-16T00:30:02;30.40;;;4.08;;
70075;SDS011;63241;51.056;3.698;2023-04-16T00:32:30;67.75;;;4.10;;
70075;SDS011;63241;51.056;3.698;2023-04-16T00:34:58;11.70;;;2.98;;
70075;SDS011;63241;51.056;3.698;2023-04-16T00:37:26;13.05;;;3.80;;
70075;SDS011;63241;51.056;3.698;2023-04-16T00:39:53;21.62;;;3.42;;
70075;SDS011;63241;51.056;3.698;2023-04-16T00:42:21;10.75;;;2.83;;
70075;SDS011;63241;51.056;3.698;2023-04-16T00:44:49;10.03;;;3.08;;
70075;SDS011;63241;51.056;3.698;2023-04-16T00:47:16;10.80;;;2.85;;
70075;SDS011;63241;51.056;3.698;2023-04-16T00:49:47;9.85;;;2.37;;
70075;SDS011;63241;51.056;3.698;2023-04-16T00:52:15;15.70;;;2.98;;
70075;SDS011;63241;51.056;3.698;2023-04-16T00:54:43;13.35;;;2.75;;
70075;SDS011;63241;51.056;3.698;2023-04-16T00:57:12;16.67;;;3.33;;
70075;SDS011;63241;51.056;3.698;2023-04-16T00:59:40;15.00;;;3.20;;
70075;SDS011;63241;51.056;3.698;2023-04-16T01:02:08;8.40;;;2.10;;
70075;SDS011;63241;51.056;3.698;2023-04-16T01:04:37;12.68;;;2.58;;
70075;SDS011;63241;51.056;3.698;2023-04-16T01:07:05;9.48;;;2.20;;
70075;SDS011;63241;51.056;3.698;2023-04-16T01:09:32;14.93;;;2.42;;
70075;SDS011;63241;51.056;3.698;2023-04-16T01:12:00;11.45;;;2.80;;
70075;SDS011;63241;51.056;3.698;2023-04-16T01:14:28;12.60;;;2.22;;
70075;SDS011;63241;51.056;3.698;2023-04-16T01:16:57;13.35;;;2.40;;
70075;SDS011;63241;51.056;3.698;2023-04-16T01:19:25;10.32;;;2.45;;
70075;SDS011;63241;51.056;3.698;2023-04-16T01:21:53;9.63;;;2.27;;
70075;SDS011;63241;51.056;3.698;2023-04-16T01:24:21;11.45;;;2.17;;
70075;SDS011;63241;51.056;3.698;2023-04-16T01:26:49;10.70;;;2.20;;
70075;SDS011;63241;51.056;3.698;2023-04-16T01:29:16;11.57;;;2.37;;
70075;SDS011;63241;51.056;3.698;2023-04-16T01:31:44;9.05;;;2.27;;
70075;SDS011;63241;51.056;3.698;2023-04-16T01:34:12;10.20;;;2.95;;
70075;SDS011;63241;51.056;3.698;2023-04-16T01:36:39;9.10;;;1.87;;
70075;SDS011;63241;51.056;3.698;2023-04-16T01:39:07;11.78;;;2.25;;
70075;SDS011;63241;51.056;3.698;2023-04-16T01:41:39;12.95;;;2.20;;
70075;SDS011;63241;51.056;3.698;2023-04-16T01:44:07;9.73;;;2.15;;
70075;SDS011;63241;51.056;3.698;2023-04-16T01:46:35;10.70;;;2.22;;
70075;SDS011;63241;51.056;3.698;2023-04-16T01:49:04;8.45;;;2.00;;
70075;SDS011;63241;51.056;3.698;2023-04-16T01:51:32;11.55;;;2.60;;
70075;SDS011;63241;51.056;3.698;2023-04-16T01:53:59;10.68;;;2.20;;
70075;SDS011;63241;51.056;3.698;2023-04-16T01:56:27;10.93;;;2.25;;
70075;SDS011;63241;51.056;3.698;2023-04-16T01:58:55;5.65;;;1.82;;
70075;SDS011;63241;51.056;3.698;2023-04-16T02:01:22;7.70;;;1.90;;
70075;SDS011;63241;51.056;3.698;2023-04-16T02:03:50;13.40;;;2.33;;
70075;SDS011;63241;51.056;3.698;2023-04-16T02:06:18;10.75;;;2.25;;
70075;SDS011;63241;51.056;3.698;2023-04-16T02:08:46;10.32;;;2.17;;
70075;SDS011;63241;51.056;3.698;2023-04-16T02:11:14;9.98;;;2.10;;
70075;SDS011;63241;51.056;3.698;2023-04-16T02:13:41;10.20;;;2.42;;
70075;SDS011;63241;51.056;3.698;2023-04-16T02:16:09;13.98;;;1.87;;
70075;SDS011;63241;51.056;3.698;2023-04-16T02:18:37;10.53;;;1.82;;
70075;SDS011;63241;51.056;3.698;2023-04-16T02:21:04;10.20;;;2.10;;
70075;SDS011;63241;51.056;3.698;2023-04-16T02:23:32;17.35;;;2.62;;
70075;SDS011;63241;51.056;3.698;2023-04-16T02:26:01;12.28;;;2.12;;
70075;SDS011;63241;51.056;3.698;2023-04-16T02:28:29;10.65;;;1.70;;
70075;SDS011;63241;51.056;3.698;2023-04-16T02:30:57;11.80;;;2.02;;
70075;SDS011;63241;51.056;3.698;2023-04-16T02:33:24;10.75;;;2.35;;
70075;SDS011;63241;51.056;3.698;2023-04-16T02:35:52;9.95;;;2.10;;
70075;SDS011;63241;51.056;3.698;2023-04-16T02:38:20;14.73;;;1.98;;
70075;SDS011;63241;51.056;3.698;2023-04-16T02:40:47;11.03;;;2.12;;
70075;SDS011;63241;51.056;3.698;2023-04-16T02:43:15;9.38;;;2.22;;
70075;SDS011;63241;51.056;3.698;2023-04-16T02:45:43;12.60;;;2.27;;
70075;SDS011;63241;51.056;3.698;2023-04-16T02:48:10;8.50;;;2.20;;
70075;SDS011;63241;51.056;3.698;2023-04-16T02:50:38;12.98;;;2.52;;
70075;SDS011;63241;51.056;3.698;2023-04-16T02:53:06;11.03;;;2.30;;
70075;SDS011;63241;51.056;3.698;2023-04-16T02:55:35;7.20;;;1.90;;
70075;SDS011;63241;51.056;3.698;2023-04-16T02:58:02;8.13;;;2.05;;
70075;SDS011;63241;51.056;3.698;2023-04-16T03:00:30;17.17;;;2.15;;
70075;SDS011;63241;51.056;3.698;2023-04-16T03:02:58;9.03;;;2.20;;
70075;SDS011;63241;51.056;3.698;2023-04-16T03:05:25;6.67;;;1.75;;
70075;SDS011;63241;51.056;3.698;2023-04-16T03:07:53;7.15;;;1.67;;
70075;SDS011;63241;51.056;3.698;2023-04-16T03:10:22;11.00;;;2.17;;
70075;SDS011;63241;51.056;3.698;2023-04-16T03:12:49;7.75;;;2.30;;
70075;SDS011;63241;51.056;3.698;2023-04-16T03:15:17;6.87;;;1.70;;
70075;SDS011;63241;51.056;3.698;2023-04-16T03:17:45;9.03;;;1.82;;
70075;SDS011;63241;51.056;3.698;2023-04-16T03:20:12;10.30;;;2.10;;
70075;SDS011;63241;51.056;3.698;2023-04-16T03:22:42;8.23;;;1.90;;
70075;SDS011;63241;51.056;3.698;2023-04-16T03:25:09;10.58;;;2.08;;
70075;SDS011;63241;51.056;3.698;2023-04-16T03:27:37;9.63;;;1.80;;
70075;SDS011;63241;51.056;3.698;2023-04-16T03:30:10;10.48;;;2.02;;
70075;SDS011;63241;51.056;3.698;2023-04-16T03:32:35;9.05;;;1.90;;
70075;SDS011;63241;51.056;3.698;2023-04-16T03:35:08;9.35;;;2.55;;
70075;SDS011;63241;51.056;3.698;2023-04-16T03:37:33;13.88;;;2.40;;
70075;SDS011;63241;51.056;3.698;2023-04-16T03:40:01;11.12;;;2.60;;
70075;SDS011;63241;51.056;3.698;2023-04-16T03:42:30;7.80;;;2.52;;
70075;SDS011;63241;51.056;3.698;2023-04-16T03:44:58;11.43;;;2.05;;
70075;SDS011;63241;51.056;3.698;2023-04-16T03:47:26;8.88;;;2.02;;
70075;SDS011;63241;51.056;3.698;2023-04-16T03:49:53;9.15;;;2.02;;
70075;SDS011;63241;51.056;3.698;2023-04-16T03:52:21;8.05;;;2.33;;
70075;SDS011;63241;51.056;3.698;2023-04-16T03:54:49;9.13;;;2.08;;
70075;SDS011;63241;51.056;3.698;2023-04-16T03:57:16;8.43;;;1.60;;
70075;SDS011;63241;51.056;3.698;2023-04-16T03:59:44;3.87;;;1.67;;
70075;SDS011;63241;51.056;3.698;2023-04-16T04:02:12;10.70;;;2.17;;
70075;SDS011;63241;51.056;3.698;2023-04-16T04:04:39;11.78;;;2.10;;
70075;SDS011;63241;51.056;3.698;2023-04-16T04:07:07;10.75;;;2.30;;
70075;SDS011;63241;51.056;3.698;2023-04-16T04:09:35;9.68;;;2.05;;
70075;SDS011;63241;51.056;3.698;2023-04-16T04:12:03;14.00;;;2.45;;
70075;SDS011;63241;51.056;3.698;2023-04-16T04:14:30;9.65;;;2.20;;
70075;SDS011;63241;51.056;3.698;2023-04-16T04:16:58;10.50;;;2.20;;
70075;SDS011;63241;51.056;3.698;2023-04-16T04:19:26;6.45;;;1.75;;
70075;SDS011;63241;51.056;3.698;2023-04-16T04:21:53;12.13;;;2.52;;
70075;SDS011;63241;51.056;3.698;2023-04-16T04:24:21;9.03;;;1.95;;
70075;SDS011;63241;51.056;3.698;2023-04-16T04:26:48;9.38;;;2.15;;
70075;SDS011;63241;51.056;3.698;2023-04-16T04:29:16;10.38;;;1.77;;
70075;SDS011;63241;51.056;3.698;2023-04-16T04:31:44;12.35;;;2.37;;
70075;SDS011;63241;51.056;3.698;2023-04-16T04:34:11;7.45;;;2.30;;
70075;SDS011;63241;51.056;3.698;2023-04-16T04:36:39;7.03;;;1.95;;
70075;SDS011;63241;51.056;3.698;2023-04-16T04:39:06;11.00;;;2.55;;
70075;SDS011;63241;51.056;3.698;2023-04-16T04:41:34;9.53;;;2.00;;
70075;SDS011;63241;51.056;3.698;2023-04-16T04:44:02;11.08;;;2.42;;
70075;SDS011;63241;51.056;3.698;2023-04-16T04:46:29;7.72;;;2.35;;
70075;SDS011;63241;51.056;3.698;2023-04-16T04:48:57;7.22;;;2.20;;
70075;SDS011;63241;51.056;3.698;2023-04-16T04:51:25;7.15;;;1.87;;
70075;SDS011;63241;51.056;3.698;2023-04-16T04:53:52;9.78;;;1.77;;
70075;SDS011;63241;51.056;3.698;2023-04-16T04:56:20;11.20;;;2.45;;
70075;SDS011;63241;51.056;3.698;2023-04-16T04:58:48;11.15;;;2.70;;
70075;SDS011;63241;51.056;3.698;2023-04-16T05:01:16;10.70;;;2.52;;
70075;SDS011;63241;51.056;3.698;2023-04-16T05:03:44;12.13;;;2.08;;
70075;SDS011;63241;51.056;3.698;2023-04-16T05:06:12;6.72;;;2.05;;
70075;SDS011;63241;51.056;3.698;2023-04-16T05:08:39;7.25;;;1.80;;
70075;SDS011;63241;51.056;3.698;2023-04-16T05:11:07;8.58;;;2.17;;
70075;SDS011;63241;51.056;3.698;2023-04-16T05:13:34;7.10;;;2.08;;
70075;SDS011;63241;51.056;3.698;2023-04-16T05:16:02;10.72;;;2.60;;
70075;SDS011;63241;51.056;3.698;2023-04-16T05:18:30;7.25;;;2.27;;
70075;SDS011;63241;51.056;3.698;2023-04-16T05:20:58;9.33;;;2.35;;
70075;SDS011;63241;51.056;3.698;2023-04-16T05:23:25;9.05;;;2.60;;
70075;SDS011;63241;51.056;3.698;2023-04-16T05:25:53;8.63;;;2.83;;
70075;SDS011;63241;51.056;3.698;2023-04-16T05:28:21;15.48;;;2.40;;
70075;SDS011;63241;51.056;3.698;2023-04-16T05:30:48;9.40;;;2.33;;
70075;SDS011;63241;51.056;3.698;2023-04-16T05:33:16;9.48;;;2.42;;
70075;SDS011;63241;51.056;3.698;2023-04-16T05:35:44;9.03;;;2.50;;
70075;SDS011;63241;51.056;3.698;2023-04-16T05:38:11;7.75;;;2.70;;
70075;SDS011;63241;51.056;3.698;2023-04-16T05:40:39;8.40;;;2.55;;
70075;SDS011;63241;51.056;3.698;2023-04-16T05:43:07;9.80;;;2.47;;
70075;SDS011;63241;51.056;3.698;2023-04-16T05:45:34;10.85;;;2.62;;
70075;SDS011;63241;51.056;3.698;2023-04-16T05:48:04;11.35;;;2.70;;
70075;SDS011;63241;51.056;3.698;2023-04-16T05:50:34;5.90;;;2.30;;
70075;SDS011;63241;51.056;3.698;2023-04-16T05:53:04;14.45;;;3.30;;
70075;SDS011;63241;51.056;3.698;2023-04-16T05:55:32;10.68;;;2.42;;
70075;SDS011;63241;51.056;3.698;2023-04-16T05:58:02;9.68;;;2.40;;
70075;SDS011;63241;51.056;3.698;2023-04-16T06:00:30;8.68;;;2.55;;
70075;SDS011;63241;51.056;3.698;2023-04-16T06:02:58;8.95;;;2.20;;
70075;SDS011;63241;51.056;3.698;2023-04-16T06:05:26;5.70;;;2.25;;
70075;SDS011;63241;51.056;3.698;2023-04-16T06:07:54;8.53;;;2.33;;
70075;SDS011;63241;51.056;3.698;2023-04-16T06:10:22;8.85;;;3.00;;
70075;SDS011;63241;51.056;3.698;2023-04-16T06:12:50;8.88;;;2.30;;
70075;SDS011;63241;51.056;3.698;2023-04-16T06:15:18;5.42;;;2.25;;
70075;SDS011;63241;51.056;3.698;2023-04-16T06:17:45;8.20;;;2.45;;
70075;SDS011;63241;51.056;3.698;2023-04-16T06:20:13;9.83;;;2.20;;
70075;SDS011;63241;51.056;3.698;2023-04-16T06:22:41;11.78;;;2.58;;
70075;SDS011;63241;51.056;3.698;2023-04-16T06:25:09;7.67;;;2.42;;
70075;SDS011;63241;51.056;3.698;2023-04-16T06:27:36;9.08;;;3.20;;
70075;SDS011;63241;51.056;3.698;2023-04-16T06:30:04;12.43;;;3.52;;
70075;SDS011;63241;51.056;3.698;2023-04-16T06:32:34;18.32;;;6.67;;
70075;SDS011;63241;51.056;3.698;2023-04-16T06:35:01;14.07;;;5.62;;
70075;SDS011;63241;51.056;3.698;2023-04-16T06:37:29;12.80;;;4.85;;
70075;SDS011;63241;51.056;3.698;2023-04-16T06:39:57;12.73;;;3.62;;
70075;SDS011;63241;51.056;3.698;2023-04-16T06:42:24;7.92;;;2.70;;
70075;SDS011;63241;51.056;3.698;2023-04-16T06:44:52;18.07;;;7.55;;
70075;SDS011;63241;51.056;3.698;2023-04-16T06:47:20;16.80;;;5.62;;
70075;SDS011;63241;51.056;3.698;2023-04-16T06:49:47;8.63;;;3.47;;
70075;SDS011;63241;51.056;3.698;2023-04-16T06:52:15;11.70;;;2.85;;
70075;SDS011;63241;51.056;3.698;2023-04-16T06:54:43;9.18;;;2.70;;
70075;SDS011;63241;51.056;3.698;2023-04-16T06:57:10;10.90;;;2.58;;
70075;SDS011;63241;51.056;3.698;2023-04-16T06:59:38;9.38;;;2.65;;
70075;SDS011;63241;51.056;3.698;2023-04-16T07:02:06;8.55;;;2.50;;
70075;SDS011;63241;51.056;3.698;2023-04-16T07:04:36;15.98;;;5.33;;
70075;SDS011;63241;51.056;3.698;2023-04-16T07:07:03;13.03;;;5.05;;
70075;SDS011;63241;51.056;3.698;2023-04-16T07:09:31;9.00;;;2.30;;
70075;SDS011;63241;51.056;3.698;2023-04-16T07:11:59;6.12;;;2.65;;
70075;SDS011;63241;51.056;3.698;2023-04-16T07:14:26;7.50;;;2.30;;
70075;SDS011;63241;51.056;3.698;2023-04-16T07:16:54;11.70;;;3.17;;
70075;SDS011;63241;51.056;3.698;2023-04-16T07:19:22;7.85;;;2.50;;
70075;SDS011;63241;51.056;3.698;2023-04-16T07:21:49;7.05;;;2.42;;
70075;SDS011;63241;51.056;3.698;2023-04-16T07:24:18;7.03;;;2.58;;
70075;SDS011;63241;51.056;3.698;2023-04-16T07:26:46;8.70;;;3.12;;
70075;SDS011;63241;51.056;3.698;2023-04-16T07:29:13;5.62;;;2.60;;
70075;SDS011;63241;51.056;3.698;2023-04-16T07:31:41;8.98;;;2.80;;
70075;SDS011;63241;51.056;3.698;2023-04-16T07:34:09;13.43;;;5.75;;
70075;SDS011;63241;51.056;3.698;2023-04-16T07:36:36;7.72;;;2.77;;
70075;SDS011;63241;51.056;3.698;2023-04-16T07:39:04;8.10;;;2.62;;
70075;SDS011;63241;51.056;3.698;2023-04-16T07:41:32;11.08;;;2.30;;
70075;SDS011;63241;51.056;3.698;2023-04-16T07:44:00;7.37;;;2.60;;
70075;SDS011;63241;51.056;3.698;2023-04-16T07:46:27;6.10;;;2.05;;
70075;SDS011;63241;51.056;3.698;2023-04-16T07:48:55;9.90;;;2.10;;
70075;SDS011;63241;51.056;3.698;2023-04-16T07:51:23;6.95;;;1.92;;
70075;SDS011;63241;51.056;3.698;2023-04-16T07:53:51;4.72;;;2.02;;
70075;SDS011;63241;51.056;3.698;2023-04-16T07:56:18;6.58;;;2.45;;
70075;SDS011;63241;51.056;3.698;2023-04-16T07:58:46;7.08;;;2.77;;
70075;SDS011;63241;51.056;3.698;2023-04-16T08:01:14;7.33;;;3.25;;
70075;SDS011;63241;51.056;3.698;2023-04-16T08:03:41;8.98;;;2.40;;
70075;SDS011;63241;51.056;3.698;2023-04-16T08:06:09;8.13;;;2.72;;
70075;SDS011;63241;51.056;3.698;2023-04-16T08:08:37;9.38;;;2.37;;
70075;SDS011;63241;51.056;3.698;2023-04-16T08:11:05;6.58;;;2.20;;
70075;SDS011;63241;51.056;3.698;2023-04-16T08:13:32;7.20;;;2.60;;
70075;SDS011;63241;51.056;3.698;2023-04-16T08:16:00;8.35;;;2.52;;
70075;SDS011;63241;51.056;3.698;2023-04-16T08:18:28;8.60;;;3.08;;
70075;SDS011;63241;51.056;3.698;2023-04-16T08:20:55;11.10;;;3.50;;
70075;SDS011;63241;51.056;3.698;2023-04-16T08:23:23;9.50;;;3.10;;
70075;SDS011;63241;51.056;3.698;2023-04-16T08:25:51;10.68;;;3.15;;
70075;SDS011;63241;51.056;3.698;2023-04-16T08:28:18;11.05;;;3.30;;
70075;SDS011;63241;51.056;3.698;2023-04-16T08:30:46;10.85;;;3.45;;
70075;SDS011;63241;51.056;3.698;2023-04-16T08:33:14;9.75;;;2.70;;
70075;SDS011;63241;51.056;3.698;2023-04-16T08:35:41;6.95;;;2.95;;
70075;SDS011;63241;51.056;3.698;2023-04-16T08:38:09;8.93;;;2.90;;
70075;SDS011;63241;51.056;3.698;2023-04-16T08:40:37;7.15;;;3.15;;
70075;SDS011;63241;51.056;3.698;2023-04-16T08:43:11;10.13;;;4.10;;
70075;SDS011;63241;51.056;3.698;2023-04-16T08:45:37;8.73;;;3.60;;
70075;SDS011;63241;51.056;3.698;2023-04-16T08:48:08;6.47;;;2.52;;
70075;SDS011;63241;51.056;3.698;2023-04-16T08:50:37;8.50;;;2.83;;
70075;SDS011;63241;51.056;3.698;2023-04-16T08:53:09;9.55;;;3.10;;
70075;SDS011;63241;51.056;3.698;2023-04-16T08:55:40;14.58;;;7.28;;
70075;SDS011;63241;51.056;3.698;2023-04-16T09:00:40;6.12;;;3.17;;
70075;SDS011;63241;51.056;3.698;2023-04-16T09:03:09;5.60;;;3.25;;
70075;SDS011;63241;51.056;3.698;2023-04-16T09:05:37;8.13;;;2.90;;
70075;SDS011;63241;51.056;3.698;2023-04-16T09:08:05;5.20;;;2.58;;
70075;SDS011;63241;51.056;3.698;2023-04-16T09:10:33;6.50;;;2.65;;
70075;SDS011;63241;51.056;3.698;2023-04-16T09:13:00;7.00;;;2.65;;
70075;SDS011;63241;51.056;3.698;2023-04-16T09:15:28;6.70;;;2.35;;
70075;SDS011;63241;51.056;3.698;2023-04-16T09:17:56;6.78;;;2.58;;
70075;SDS011;63241;51.056;3.698;2023-04-16T09:20:23;8.53;;;3.22;;
70075;SDS011;63241;51.056;3.698;2023-04-16T09:22:51;6.65;;;2.47;;
70075;SDS011;63241;51.056;3.698;2023-04-16T09:25:19;7.45;;;2.30;;
70075;SDS011;63241;51.056;3.698;2023-04-16T09:27:50;5.40;;;2.40;;
70075;SDS011;63241;51.056;3.698;2023-04-16T09:30:18;7.67;;;2.60;;
70075;SDS011;63241;51.056;3.698;2023-04-16T09:35:18;8.18;;;2.60;;
70075;SDS011;63241;51.056;3.698;2023-04-16T09:37:55;8.68;;;2.67;;
70075;SDS011;63241;51.056;3.698;2023-04-16T09:40:24;7.67;;;2.60;;
70075;SDS011;63241;51.056;3.698;2023-04-16T09:42:57;8.67;;;3.00;;
70075;SDS011;63241;51.056;3.698;2023-04-16T09:45:29;8.68;;;2.35;;
70075;SDS011;63241;51.056;3.698;2023-04-16T09:48:01;5.83;;;2.62;;
70075;SDS011;63241;51.056;3.698;2023-04-16T09:50:31;10.95;;;2.70;;
70075;SDS011;63241;51.056;3.698;2023-04-16T09:53:00;6.50;;;2.67;;
70075;SDS011;63241;51.056;3.698;2023-04-16T09:55:28;10.78;;;3.02;;
70075;SDS011;63241;51.056;3.698;2023-04-16T09:57:59;6.75;;;2.37;;
70075;SDS011;63241;51.056;3.698;2023-04-16T10:00:27;5.83;;;2.58;;
70075;SDS011;63241;51.056;3.698;2023-04-16T10:03:03;7.95;;;3.02;;
70075;SDS011;63241;51.056;3.698;2023-04-16T10:05:31;4.50;;;2.15;;
70075;SDS011;63241;51.056;3.698;2023-04-16T10:07:59;8.30;;;3.15;;
70075;SDS011;63241;51.056;3.698;2023-04-16T10:10:28;12.45;;;4.67;;
70075;SDS011;63241;51.056;3.698;2023-04-16T10:12:55;6.47;;;2.65;;
70075;SDS011;63241;51.056;3.698;2023-04-16T10:15:23;8.85;;;2.77;;
70075;SDS011;63241;51.056;3.698;2023-04-16T10:17:51;9.45;;;3.30;;
70075;SDS011;63241;51.056;3.698;2023-04-16T10:20:20;8.63;;;3.00;;
70075;SDS011;63241;51.056;3.698;2023-04-16T10:22:49;8.73;;;2.72;;
70075;SDS011;63241;51.056;3.698;2023-04-16T10:25:17;7.22;;;2.70;;
70075;SDS011;63241;51.056;3.698;2023-04-16T10:27:45;7.10;;;2.65;;
70075;SDS011;63241;51.056;3.698;2023-04-16T10:30:14;6.97;;;2.77;;
70075;SDS011;63241;51.056;3.698;2023-04-16T10:32:43;6.87;;;2.35;;
70075;SDS011;63241;51.056;3.698;2023-04-16T12:15:55;7.85;;;2.98;;
70075;SDS011;63241;51.056;3.698;2023-04-16T12:18:20;13.10;;;3.40;;
70075;SDS011;63241;51.056;3.698;2023-04-16T12:20:49;8.43;;;3.20;;
70075;SDS011;63241;51.056;3.698;2023-04-16T12:23:23;8.15;;;3.35;;
70075;SDS011;63241;51.056;3.698;2023-04-16T12:25:55;5.47;;;3.27;;
70075;SDS011;63241;51.056;3.698;2023-04-16T12:28:27;9.88;;;3.33;;
70075;SDS011;63241;51.056;3.698;2023-04-16T12:30:56;10.32;;;4.60;;
70075;SDS011;63241;51.056;3.698;2023-04-16T12:33:24;15.10;;;5.33;;
70075;SDS011;63241;51.056;3.698;2023-04-16T12:35:52;11.30;;;4.85;;
70075;SDS011;63241;51.056;3.698;2023-04-16T12:38:20;7.90;;;3.60;;
70075;SDS011;63241;51.056;3.698;2023-04-16T12:40:47;8.15;;;3.60;;
70075;SDS011;63241;51.056;3.698;2023-04-16T12:43:15;11.68;;;3.70;;
70075;SDS011;63241;51.056;3.698;2023-04-16T12:45:44;8.70;;;3.33;;
70075;SDS011;63241;51.056;3.698;2023-04-16T12:48:12;9.38;;;3.17;;
70075;SDS011;63241;51.056;3.698;2023-04-16T12:50:39;7.10;;;3.45;;
70075;SDS011;63241;51.056;3.698;2023-04-16T12:53:09;6.53;;;3.00;;
70075;SDS011;63241;51.056;3.698;2023-04-16T12:55:37;7.30;;;2.87;;
70075;SDS011;63241;51.056;3.698;2023-04-16T12:58:04;8.45;;;3.00;;
70075;SDS011;63241;51.056;3.698;2023-04-16T13:00:32;9.18;;;3.50;;
70075;SDS011;63241;51.056;3.698;2023-04-16T13:03:00;8.18;;;3.02;;
70075;SDS011;63241;51.056;3.698;2023-04-16T13:05:28;9.05;;;3.60;;
70075;SDS011;63241;51.056;3.698;2023-04-16T13:07:55;9.78;;;5.15;;
70075;SDS011;63241;51.056;3.698;2023-04-16T13:10:23;6.62;;;3.47;;
70075;SDS011;63241;51.056;3.698;2023-04-16T13:12:52;11.70;;;4.50;;
70075;SDS011;63241;51.056;3.698;2023-04-16T13:15:20;7.37;;;3.30;;
70075;SDS011;63241;51.056;3.698;2023-04-16T13:17:48;6.72;;;3.80;;
70075;SDS011;63241;51.056;3.698;2023-04-16T13:20:15;11.45;;;4.20;;
70075;SDS011;63241;51.056;3.698;2023-04-16T13:22:43;11.73;;;5.30;;
70075;SDS011;63241;51.056;3.698;2023-04-16T13:25:11;7.08;;;3.80;;
70075;SDS011;63241;51.056;3.698;2023-04-16T13:27:38;8.10;;;3.95;;
70075;SDS011;63241;51.056;3.698;2023-04-16T13:30:06;8.50;;;3.90;;
70075;SDS011;63241;51.056;3.698;2023-04-16T13:32:34;8.00;;;4.03;;
70075;SDS011;63241;51.056;3.698;2023-04-16T13:35:02;9.65;;;5.20;;
70075;SDS011;63241;51.056;3.698;2023-04-16T13:37:30;14.05;;;6.75;;
70075;SDS011;63241;51.056;3.698;2023-04-16T13:39:57;10.75;;;4.80;;
70075;SDS011;63241;51.056;3.698;2023-04-16T13:42:25;10.95;;;5.05;;
70075;SDS011;63241;51.056;3.698;2023-04-16T13:44:53;11.25;;;4.47;;
70075;SDS011;63241;51.056;3.698;2023-04-16T13:47:20;10.35;;;3.55;;
70075;SDS011;63241;51.056;3.698;2023-04-16T13:49:48;10.38;;;5.03;;
70075;SDS011;63241;51.056;3.698;2023-04-16T13:52:16;9.30;;;4.50;;
70075;SDS011;63241;51.056;3.698;2023-04-16T13:54:43;7.85;;;4.10;;
70075;SDS011;63241;51.056;3.698;2023-04-16T13:57:11;7.53;;;4.22;;
70075;SDS011;63241;51.056;3.698;2023-04-16T13:59:39;10.20;;;3.22;;
70075;SDS011;63241;51.056;3.698;2023-04-16T14:02:06;8.90;;;3.58;;
70075;SDS011;63241;51.056;3.698;2023-04-16T14:04:36;10.15;;;3.90;;
70075;SDS011;63241;51.056;3.698;2023-04-16T14:07:03;8.40;;;3.40;;
70075;SDS011;63241;51.056;3.698;2023-04-16T14:09:31;7.30;;;3.90;;
70075;SDS011;63241;51.056;3.698;2023-04-16T14:11:59;7.97;;;3.58;;
70075;SDS011;63241;51.056;3.698;2023-04-16T14:14:26;9.40;;;3.60;;
70075;SDS011;63241;51.056;3.698;2023-04-16T14:16:54;10.85;;;5.12;;
70075;SDS011;63241;51.056;3.698;2023-04-16T14:19:24;8.93;;;3.30;;
70075;SDS011;63241;51.056;3.698;2023-04-16T14:21:51;6.92;;;2.83;;
70075;SDS011;63241;51.056;3.698;2023-04-16T14:24:19;7.03;;;3.35;;
70075;SDS011;63241;51.056;3.698;2023-04-16T14:26:46;10.53;;;3.30;;
70075;SDS011;63241;51.056;3.698;2023-04-16T14:29:14;8.03;;;3.85;;
70075;SDS011;63241;51.056;3.698;2023-04-16T14:31:42;7.78;;;4.05;;
70075;SDS011;63241;51.056;3.698;2023-04-16T14:34:10;9.90;;;3.90;;
70075;SDS011;63241;51.056;3.698;2023-04-16T14:36:37;10.03;;;3.25;;
70075;SDS011;63241;51.056;3.698;2023-04-16T14:39:05;7.05;;;3.37;;
70075;SDS011;63241;51.056;3.698;2023-04-16T14:41:33;9.75;;;3.70;;
70075;SDS011;63241;51.056;3.698;2023-04-16T14:44:01;6.10;;;3.10;;
70075;SDS011;63241;51.056;3.698;2023-04-16T14:46:30;8.05;;;3.87;;
70075;SDS011;63241;51.056;3.698;2023-04-16T14:48:58;8.75;;;3.67;;
70075;SDS011;63241;51.056;3.698;2023-04-16T14:51:26;8.28;;;3.33;;
70075;SDS011;63241;51.056;3.698;2023-04-16T14:53:53;8.23;;;3.58;;
70075;SDS011;63241;51.056;3.698;2023-04-16T14:56:22;10.10;;;3.30;;
70075;SDS011;63241;51.056;3.698;2023-04-16T14:58:49;7.75;;;3.12;;
70075;SDS011;63241;51.056;3.698;2023-04-16T15:01:17;6.95;;;3.27;;
70075;SDS011;63241;51.056;3.698;2023-04-16T15:03:45;17.37;;;4.05;;
70075;SDS011;63241;51.056;3.698;2023-04-16T15:06:12;10.65;;;4.70;;
70075;SDS011;63241;51.056;3.698;2023-04-16T15:08:41;7.35;;;3.60;;
70075;SDS011;63241;51.056;3.698;2023-04-16T15:11:08;10.32;;;3.72;;
70075;SDS011;63241;51.056;3.698;2023-04-16T15:13:36;7.60;;;4.37;;
70075;SDS011;63241;51.056;3.698;2023-04-16T15:16:04;8.63;;;4.33;;
70075;SDS011;63241;51.056;3.698;2023-04-16T15:18:31;8.93;;;4.70;;
70075;SDS011;63241;51.056;3.698;2023-04-16T15:20:59;10.65;;;4.70;;
70075;SDS011;63241;51.056;3.698;2023-04-16T15:23:27;12.65;;;4.50;;
70075;SDS011;63241;51.056;3.698;2023-04-16T15:25:55;11.73;;;4.22;;
70075;SDS011;63241;51.056;3.698;2023-04-16T15:28:24;12.50;;;4.97;;
70075;SDS011;63241;51.056;3.698;2023-04-16T15:30:51;8.53;;;3.80;;
70075;SDS011;63241;51.056;3.698;2023-04-16T15:33:20;8.95;;;3.95;;
70075;SDS011;63241;51.056;3.698;2023-04-16T15:35:48;6.97;;;3.70;;
70075;SDS011;63241;51.056;3.698;2023-04-16T15:38:16;11.43;;;3.58;;
70075;SDS011;63241;51.056;3.698;2023-04-16T15:40:46;9.80;;;3.92;;
70075;SDS011;63241;51.056;3.698;2023-04-16T15:43:14;6.00;;;3.50;;
70075;SDS011;63241;51.056;3.698;2023-04-16T15:45:41;10.10;;;3.55;;
70075;SDS011;63241;51.056;3.698;2023-04-16T15:48:09;6.83;;;3.40;;
70075;SDS011;63241;51.056;3.698;2023-04-16T15:50:37;9.50;;;3.80;;
70075;SDS011;63241;51.056;3.698;2023-04-16T15:53:05;7.55;;;3.50;;
70075;SDS011;63241;51.056;3.698;2023-04-16T15:55:33;9.53;;;3.62;;
70075;SDS011;63241;51.056;3.698;2023-04-16T15:58:01;7.95;;;3.40;;
70075;SDS011;63241;51.056;3.698;2023-04-16T16:00:28;7.67;;;3.62;;
70075;SDS011;63241;51.056;3.698;2023-04-16T16:02:56;8.40;;;4.37;;
70075;SDS011;63241;51.056;3.698;2023-04-16T16:05:24;11.53;;;4.72;;
70075;SDS011;63241;51.056;3.698;2023-04-16T16:07:52;6.40;;;4.00;;
70075;SDS011;63241;51.056;3.698;2023-04-16T16:10:20;8.13;;;3.92;;
70075;SDS011;63241;51.056;3.698;2023-04-16T16:12:47;11.22;;;3.90;;
70075;SDS011;63241;51.056;3.698;2023-04-16T16:15:15;9.48;;;3.70;;
70075;SDS011;63241;51.056;3.698;2023-04-16T16:17:43;8.78;;;3.40;;
70075;SDS011;63241;51.056;3.698;2023-04-16T16:20:11;4.95;;;3.65;;
70075;SDS011;63241;51.056;3.698;2023-04-16T16:22:39;7.45;;;3.75;;
70075;SDS011;63241;51.056;3.698;2023-04-16T16:25:08;6.83;;;3.83;;
70075;SDS011;63241;51.056;3.698;2023-04-16T16:27:36;4.62;;;3.40;;
70075;SDS011;63241;51.056;3.698;2023-04-16T16:30:05;8.68;;;4.10;;
70075;SDS011;63241;51.056;3.698;2023-04-16T16:32:33;6.12;;;3.50;;